Saturday, January 20, 2018, 9:55 AM EST
Back to Local

KSBY, Salisbury-wicomico Cty Reg

Location: Salisbury, MD, United States Lat: 38.333
Local Time: 9:55 AM EST (14:55 GMT) Lon: -75.5
Time Zone: US/Eastern Elev: 52 ft

Show me the last for .
Show Coded

Time T Td Feel RH Dir Speed Gust Alt SLP Vis Weather Sky Remarks
2018-01-20 08:54 40 17 34 39 230° 8 - 30.04 30.05 10 CLR None
2018-01-20 07:54 31 21 24 66 210° 7 - 30.03 30.03 10 CLR None
2018-01-20 06:54 27 19 23 71 200° 3 - 30.03 30.04 10 CLR 6-hr Min Temp (7am): 27.0°F
6-hr Max Temp (7am): 33.1°F
2018-01-20 05:54 30 18 25 60 220° 5 - 30.02 30.02 10 CLR None
2018-01-20 04:54 32 18 25 55 220° 8 - 30.01 30.02 10 CLR None
2018-01-20 03:54 30 17 25 58 220° 5 - 30.01 30.01 10 CLR None
2018-01-20 01:54 30 18 24 60 200° 6 - 30.02 30.03 10 CLR None
2018-01-20 00:54 32 18 - 55 - Calm - 30.03 30.04 10 CLR 6-hr Min Temp (1am): 27.0°F
6-hr Max Temp (1am): 32.0°F
2018-01-19 23:54 31 18 - 58 - Calm - 30.05 30.06 10 CLR 24-hr Min Temp (12am): 19.0°F
24-hr Max Temp (12am): 52.0°F
2018-01-19 22:54 30 19 23 63 200° 7 - 30.06 30.06 10 CLR None
2018-01-19 21:54 30 18 24 60 210° 6 - 30.06 30.07 10 CLR None
2018-01-19 20:54 27 19 - 71 - Calm - 30.07 30.08 10 CLR None
2018-01-19 19:54 27 20 - 74 - Calm - 30.08 30.08 10 CLR None
2018-01-19 18:54 29 22 - 74 - Calm - 30.08 30.09 10 CLR 6-hr Min Temp (7pm): 28.9°F
6-hr Max Temp (7pm): 52.0°F
2018-01-19 17:54 34 21 - 58 - Calm - 30.07 30.08 10 CLR None
2018-01-19 16:54 41 22 36 46 240° 7 - 30.06 30.07 10 CLR None
2018-01-19 15:54 50 22 46 32 240° 12 - 30.06 30.07 10 CLR None
2018-01-19 14:55 52 16 - 23 260° 3 - 30.05 - 10 CLR None
2018-01-19 14:54 51 15 - 23 Variable 3 - 30.05 30.06 10 CLR None
2018-01-19 13:54 50 16 49 25 Variable 3 - 30.06 30.07 10 CLR None
2018-01-19 12:54 48 18 46 29 Variable 5 - 30.08 30.09 10 CLR 6-hr Min Temp (1pm): 19.0°F
6-hr Max Temp (1pm): 48.9°F
2018-01-19 11:54 46 19 - 33 - Calm - 30.12 30.13 10 CLR None
2018-01-19 10:54 42 19 40 39 330° 3 - 30.16 30.17 10 CLR None

Support USWX by starting your Amazon purchase here.